createdAt,value
2018-06-21T00:02:20.855Z,32.00
2018-06-21T00:04:53.801Z,32.10
2018-06-21T00:07:26.910Z,32.40
2018-06-21T00:09:59.971Z,32.30
2018-06-21T00:12:32.931Z,32.30
2018-06-21T00:15:06.057Z,32.30
2018-06-21T00:17:39.033Z,32.40
2018-06-21T00:20:12.086Z,32.60
2018-06-21T00:22:45.083Z,32.60
2018-06-21T00:25:18.062Z,32.70
2018-06-21T00:27:50.987Z,32.70
2018-06-21T00:30:23.983Z,32.90
2018-06-21T00:32:57.010Z,32.90
2018-06-21T00:35:30.010Z,33.20
2018-06-21T00:38:03.118Z,32.60
2018-06-21T00:40:36.222Z,32.70
2018-06-21T00:43:09.256Z,32.40
2018-06-21T00:45:42.341Z,32.30
2018-06-21T00:48:15.345Z,32.00
2018-06-21T00:50:48.288Z,32.00
2018-06-21T00:53:21.286Z,31.70
2018-06-21T00:56:03.124Z,32.00
2018-06-21T00:58:37.024Z,32.50
2018-06-21T01:01:10.803Z,32.70
2018-06-21T01:03:45.827Z,32.70
2018-06-21T01:06:19.030Z,32.80
2018-06-21T01:08:52.913Z,32.70
2018-06-21T01:11:25.967Z,32.50
2018-06-21T01:13:59.193Z,31.90
2018-06-21T01:16:32.191Z,31.50
2018-06-21T01:19:05.244Z,31.60
2018-06-21T01:21:38.356Z,31.30
2018-06-21T01:24:11.565Z,31.10
2018-06-21T01:26:44.634Z,31.10
2018-06-21T01:29:17.683Z,31.00
2018-06-21T01:31:51.313Z,30.50
2018-06-21T01:34:27.863Z,30.30
2018-06-21T01:37:02.244Z,30.10
2018-06-21T01:39:38.326Z,30.20
2018-06-21T01:42:12.801Z,30.00
2018-06-21T01:44:46.667Z,29.90
2018-06-21T01:47:21.396Z,29.90
2018-06-21T01:49:55.986Z,29.90
2018-06-21T01:52:29.391Z,30.00
2018-06-21T01:55:02.812Z,30.10
2018-06-21T01:57:37.074Z,30.00
2018-06-21T02:00:10.114Z,30.10
2018-06-21T02:02:43.173Z,30.20
2018-06-21T02:05:16.305Z,30.60
2018-06-21T02:07:49.335Z,31.10
2018-06-21T02:10:22.388Z,31.50
2018-06-21T02:12:55.504Z,31.80
2018-06-21T02:15:28.513Z,32.00
2018-06-21T02:18:01.628Z,32.20
2018-06-21T02:20:34.660Z,32.30
2018-06-21T02:23:07.772Z,32.10
2018-06-21T02:25:40.760Z,31.70
2018-06-21T02:28:14.221Z,31.20
2018-06-21T02:30:47.761Z,30.20
2018-06-21T02:33:20.852Z,29.60
2018-06-21T02:35:57.923Z,29.40
2018-06-21T02:38:32.384Z,29.30
2018-06-21T02:41:06.347Z,29.20
2018-06-21T02:43:40.183Z,28.80
2018-06-21T02:46:15.161Z,28.70
2018-06-21T02:48:48.263Z,28.50
2018-06-21T02:51:21.901Z,28.40
2018-06-21T02:53:56.220Z,28.20
2018-06-21T02:56:33.157Z,28.00
2018-06-21T02:59:06.229Z,27.90
2018-06-21T03:01:40.653Z,27.80
2018-06-21T03:04:13.698Z,27.70
2018-06-21T03:06:46.770Z,27.60
2018-06-21T03:09:19.802Z,27.50
2018-06-21T03:12:07.988Z,27.40
2018-06-21T03:14:47.687Z,27.30
2018-06-21T03:17:36.442Z,27.20
2018-06-21T03:20:09.435Z,27.10
2018-06-21T03:22:42.615Z,26.90
2018-06-21T03:25:15.644Z,26.80
2018-06-21T03:27:48.767Z,26.70
2018-06-21T03:30:21.815Z,26.50
2018-06-21T03:32:54.927Z,26.40
2018-06-21T03:35:28.207Z,26.30
2018-06-21T03:38:01.812Z,26.10
2018-06-21T03:40:34.904Z,26.00
2018-06-21T03:43:07.978Z,25.90
2018-06-21T03:45:40.978Z,25.80
2018-06-21T03:48:14.119Z,25.60
2018-06-21T03:50:47.139Z,25.60
2018-06-21T03:53:20.075Z,25.50
2018-06-21T03:55:53.574Z,25.40
2018-06-21T03:58:26.629Z,25.30
2018-06-21T04:00:59.573Z,25.20
2018-06-21T04:03:32.604Z,25.20
2018-06-21T04:06:09.699Z,25.10
2018-06-21T04:11:32.076Z,24.70
2018-06-21T04:14:10.084Z,24.50
2018-06-21T04:16:45.617Z,24.40
2018-06-21T04:19:22.596Z,24.30
2018-06-21T04:21:56.318Z,24.30
2018-06-21T04:24:29.651Z,24.20
2018-06-21T04:27:02.677Z,24.00
2018-06-21T04:29:37.229Z,23.80
2018-06-21T04:32:11.215Z,23.70
2018-06-21T04:34:44.299Z,23.60
2018-06-21T04:37:17.329Z,23.60
2018-06-21T04:39:50.457Z,23.40
2018-06-21T04:42:23.604Z,23.30
2018-06-21T04:44:56.792Z,23.20
2018-06-21T04:47:30.980Z,23.10
2018-06-21T04:50:04.188Z,23.00
2018-06-21T04:52:37.360Z,22.90
2018-06-21T04:55:10.653Z,22.90
2018-06-21T04:57:43.660Z,22.90
2018-06-21T05:00:16.823Z,22.80
2018-06-21T05:02:49.963Z,22.70
2018-06-21T05:05:23.098Z,22.70
2018-06-21T05:07:56.220Z,22.70
2018-06-21T05:10:29.416Z,22.60
2018-06-21T05:13:02.667Z,22.50
2018-06-21T05:15:35.897Z,22.50
2018-06-21T05:18:09.518Z,22.40
2018-06-21T05:20:43.347Z,22.30
2018-06-21T05:23:18.375Z,22.30
2018-06-21T05:25:52.596Z,22.20
2018-06-21T05:28:27.778Z,22.10
2018-06-21T05:31:01.134Z,21.90
2018-06-21T05:33:35.238Z,21.80
2018-06-21T05:36:08.487Z,21.70
2018-06-21T05:45:27.526Z,21.20
2018-06-21T05:48:02.173Z,21.00
2018-06-21T05:50:36.138Z,20.80
2018-06-21T05:53:09.921Z,20.60
2018-06-21T05:55:43.787Z,20.50
2018-06-21T05:58:16.870Z,20.40
2018-06-21T06:00:50.405Z,20.40
2018-06-21T06:03:23.503Z,20.30
2018-06-21T06:05:58.747Z,20.20
2018-06-21T06:08:31.943Z,20.00
2018-06-21T06:11:06.286Z,19.90
2018-06-21T06:13:40.383Z,19.80
2018-06-21T06:16:13.586Z,19.70
2018-06-21T06:18:46.525Z,19.70
2018-06-21T06:21:19.532Z,19.60
2018-06-21T06:23:52.562Z,19.60
2018-06-21T06:26:25.586Z,19.60
2018-06-21T06:28:58.707Z,19.60
2018-06-21T06:31:31.688Z,19.60
2018-06-21T06:34:04.690Z,19.50
2018-06-21T06:36:37.592Z,19.50
2018-06-21T06:39:18.834Z,19.40
2018-06-21T06:41:52.885Z,19.40
2018-06-21T06:44:25.826Z,19.20
2018-06-21T06:46:58.717Z,19.20
2018-06-21T06:49:31.700Z,19.10
2018-06-21T06:52:04.711Z,19.00
2018-06-21T06:54:37.691Z,19.00
2018-06-21T06:57:10.634Z,18.90
2018-06-21T06:59:44.841Z,18.80
2018-06-21T07:02:17.858Z,18.70
2018-06-21T07:04:50.740Z,18.50
2018-06-21T07:07:23.635Z,18.40
2018-06-21T07:09:56.476Z,18.20
2018-06-21T07:12:29.445Z,18.30
2018-06-21T07:15:02.313Z,18.20
2018-06-21T07:17:35.411Z,18.10
2018-06-21T07:20:08.327Z,17.90
2018-06-21T07:22:44.025Z,17.80
2018-06-21T07:25:16.981Z,17.60
2018-06-21T07:27:49.841Z,17.30
2018-06-21T07:30:22.716Z,17.30
2018-06-21T07:32:55.573Z,17.20
2018-06-21T07:35:28.435Z,16.90
2018-06-21T07:38:02.470Z,16.80
2018-06-21T14:36:51.775Z,15.40
2018-06-21T14:39:24.977Z,15.30
2018-06-21T14:41:58.393Z,15.50
2018-06-21T14:44:31.582Z,15.50
2018-06-21T14:47:04.645Z,15.40
2018-06-21T14:49:37.786Z,15.40
2018-06-21T14:52:11.520Z,15.30
2018-06-21T14:54:45.041Z,15.50
2018-06-21T14:57:18.200Z,15.30
2018-06-21T14:59:51.378Z,15.40
2018-06-21T15:02:24.586Z,15.50
2018-06-21T15:05:07.408Z,15.50
2018-06-21T15:07:52.513Z,15.50
2018-06-21T15:10:38.797Z,15.60
2018-06-21T15:13:12.183Z,15.60
2018-06-21T15:15:45.224Z,15.60
2018-06-21T15:18:18.256Z,15.60
2018-06-21T15:20:51.295Z,15.90
2018-06-21T15:23:24.336Z,15.80
2018-06-21T15:25:57.264Z,15.80
2018-06-21T15:28:30.236Z,15.80
2018-06-21T15:31:03.221Z,15.70
2018-06-21T15:33:36.472Z,15.70
2018-06-21T15:36:09.812Z,15.70
2018-06-21T15:38:42.858Z,15.70
2018-06-21T15:41:16.116Z,15.70
2018-06-21T15:43:49.176Z,15.80
2018-06-21T15:46:22.288Z,15.80
2018-06-21T15:48:55.234Z,15.80
2018-06-21T15:51:40.350Z,15.70
2018-06-21T15:54:14.133Z,15.70
2018-06-21T15:56:47.154Z,15.90
2018-06-21T15:59:20.452Z,16.00
2018-06-21T16:01:53.520Z,16.10
2018-06-21T16:04:26.546Z,16.30
2018-06-21T16:06:59.635Z,16.30
2018-06-21T16:09:32.706Z,16.00
2018-06-21T16:12:05.654Z,16.20
2018-06-21T16:14:38.716Z,16.10
2018-06-21T16:17:11.788Z,15.90
2018-06-21T16:19:59.310Z,16.00
2018-06-21T16:22:43.051Z,16.00
2018-06-21T16:25:16.493Z,16.30
2018-06-21T16:27:49.537Z,16.30
2018-06-21T16:30:34.089Z,16.40
2018-06-21T16:33:15.731Z,16.20
2018-06-21T16:36:03.735Z,16.40
2018-06-21T16:38:50.935Z,16.30
2018-06-21T16:41:35.711Z,16.30
2018-06-21T16:44:21.471Z,16.40
2018-06-21T16:47:05.631Z,16.30
2018-06-21T16:50:15.932Z,16.40
2018-06-21T16:53:03.242Z,16.60
2018-06-21T16:55:55.644Z,16.50
2018-06-21T16:58:38.517Z,16.70
2018-06-21T17:01:12.209Z,16.90
2018-06-21T17:03:45.247Z,16.80
2018-06-21T17:06:31.599Z,16.70
2018-06-21T17:09:21.239Z,16.60
2018-06-21T17:12:06.485Z,16.80
2018-06-21T17:14:56.161Z,16.80
2018-06-21T17:17:30.019Z,16.80
2018-06-21T17:20:03.046Z,16.80
2018-06-21T17:22:38.005Z,17.00
2018-06-21T17:25:13.938Z,17.00
2018-06-21T17:27:47.129Z,17.40
2018-06-21T17:30:20.568Z,17.10
2018-06-21T17:32:53.620Z,17.30
2018-06-21T17:35:26.583Z,17.50
2018-06-21T17:37:59.578Z,17.60
2018-06-21T17:40:32.711Z,17.40
2018-06-21T17:43:05.789Z,17.40
2018-06-21T17:45:38.857Z,17.70
2018-06-21T17:48:11.900Z,18.00
2018-06-21T17:50:50.226Z,17.90
2018-06-21T17:53:23.354Z,18.10
2018-06-21T17:55:56.412Z,18.00
2018-06-21T17:58:29.417Z,17.80
2018-06-21T18:01:02.476Z,17.60
2018-06-21T18:03:35.582Z,17.80
2018-06-21T18:06:08.623Z,17.90
2018-06-21T18:08:41.780Z,17.90
2018-06-21T18:11:23.886Z,17.60
2018-06-21T18:13:58.475Z,17.50
2018-06-21T18:16:31.602Z,17.30
2018-06-21T18:19:09.383Z,17.70
2018-06-21T18:21:42.586Z,17.50
2018-06-21T18:24:15.670Z,17.60
2018-06-21T18:26:48.942Z,17.70
2018-06-21T18:29:22.088Z,17.80
2018-06-21T18:31:55.098Z,18.30
2018-06-21T18:34:28.215Z,18.20
2018-06-21T18:37:01.328Z,17.90
2018-06-21T18:39:34.453Z,18.10
2018-06-21T18:42:13.897Z,18.40
2018-06-21T18:44:47.348Z,18.50
2018-06-21T18:47:21.359Z,18.80
2018-06-21T18:49:54.403Z,18.50
2018-06-21T18:52:27.476Z,18.70
2018-06-21T18:55:00.543Z,19.30
2018-06-21T18:57:33.500Z,19.50
2018-06-21T19:00:06.546Z,19.80
2018-06-21T19:02:39.710Z,19.70
2018-06-21T19:05:13.705Z,19.80
2018-06-21T19:07:48.556Z,19.70
2018-06-21T19:10:25.959Z,19.90
2018-06-21T19:12:58.971Z,20.00
2018-06-21T19:15:31.969Z,20.10
2018-06-21T19:18:05.128Z,19.30
2018-06-21T19:20:38.232Z,19.30
2018-06-21T19:23:11.293Z,19.10
2018-06-21T19:25:44.472Z,19.10
2018-06-21T19:28:17.790Z,18.70
2018-06-21T19:30:51.058Z,18.60
2018-06-21T19:33:24.200Z,18.90
2018-06-21T19:35:57.435Z,18.80
2018-06-21T19:38:30.610Z,19.30
2018-06-21T19:41:19.370Z,19.40
2018-06-21T19:43:53.500Z,19.20
2018-06-21T19:46:26.523Z,19.30
2018-06-21T19:48:59.637Z,19.30
2018-06-21T19:51:40.908Z,19.30
2018-06-21T19:54:13.984Z,19.30
2018-06-21T19:56:47.130Z,19.20
2018-06-21T19:59:20.202Z,19.50
2018-06-21T20:02:05.660Z,19.20
2018-06-21T20:04:43.616Z,19.50
2018-06-21T20:07:16.967Z,19.50
2018-06-21T20:09:50.095Z,19.40
2018-06-21T20:12:23.119Z,19.40
2018-06-21T20:14:56.157Z,19.60
2018-06-21T20:17:29.243Z,19.70
2018-06-21T20:20:06.237Z,19.60
2018-06-21T20:22:48.397Z,19.90
2018-06-21T20:25:21.823Z,19.70
2018-06-21T20:27:54.919Z,19.70
2018-06-21T20:30:28.019Z,19.80
2018-06-21T20:33:01.290Z,19.60
2018-06-21T20:35:34.362Z,19.40
2018-06-21T20:38:07.969Z,19.50
2018-06-21T20:40:41.047Z,20.10
2018-06-21T20:46:03.032Z,19.70
2018-06-21T20:48:36.102Z,19.40
2018-06-21T20:51:09.203Z,19.30
2018-06-21T20:53:42.343Z,19.40
2018-06-21T20:56:15.462Z,19.50
2018-06-21T20:58:48.494Z,20.00
2018-06-21T21:01:21.487Z,19.70
2018-06-21T21:03:55.973Z,19.70
2018-06-21T21:06:29.050Z,19.70
2018-06-21T21:09:02.224Z,19.70
2018-06-21T21:11:35.329Z,20.30
2018-06-21T21:14:08.536Z,20.10
2018-06-21T21:16:41.778Z,19.90
2018-06-21T21:19:14.965Z,20.10
2018-06-21T21:21:48.037Z,20.20
2018-06-21T21:24:21.200Z,20.00
2018-06-21T21:26:54.290Z,20.50
2018-06-21T21:29:27.341Z,20.20
2018-06-21T21:32:01.120Z,20.40
2018-06-21T21:34:34.143Z,20.40
2018-06-21T21:37:07.391Z,20.70
2018-06-21T21:39:40.455Z,20.80
2018-06-21T21:42:14.346Z,20.40
2018-06-21T21:44:47.946Z,20.40
2018-06-21T21:47:21.035Z,20.10
2018-06-21T21:49:55.505Z,19.50
2018-06-21T21:52:28.697Z,19.20
2018-06-21T21:55:01.791Z,19.40
2018-06-21T21:57:34.884Z,19.40
2018-06-21T22:00:10.284Z,19.80
2018-06-21T22:02:43.682Z,20.10
2018-06-21T22:05:16.774Z,20.30
2018-06-21T22:07:49.866Z,20.50
2018-06-21T22:10:22.891Z,20.80
2018-06-21T22:12:55.900Z,21.30
2018-06-21T22:15:29.121Z,21.60
2018-06-21T22:18:02.262Z,20.80
2018-06-21T22:20:35.323Z,21.10
2018-06-21T22:23:09.279Z,21.10
2018-06-21T22:25:42.401Z,21.00
2018-06-21T22:28:15.404Z,21.20
2018-06-21T22:30:48.931Z,21.20
2018-06-21T22:33:21.928Z,21.20
2018-06-21T22:35:54.933Z,20.70
2018-06-21T22:38:27.946Z,20.50
2018-06-21T22:41:00.963Z,20.30
2018-06-21T22:43:34.014Z,19.90
2018-06-21T22:46:07.192Z,20.10
2018-06-21T22:48:40.329Z,20.40
2018-06-21T22:51:13.390Z,20.20
2018-06-21T22:53:46.576Z,20.70
2018-06-21T22:56:19.645Z,20.50
2018-06-21T22:58:52.711Z,20.40
2018-06-21T23:01:25.750Z,20.60
2018-06-21T23:03:58.980Z,20.70
2018-06-21T23:06:32.013Z,21.30
2018-06-21T23:09:05.366Z,21.80
2018-06-21T23:11:38.421Z,21.40
2018-06-21T23:14:11.483Z,21.10
2018-06-21T23:16:44.583Z,20.80
2018-06-21T23:19:29.226Z,21.10
2018-06-21T23:22:03.228Z,21.20
2018-06-21T23:24:36.330Z,20.90
2018-06-21T23:27:09.378Z,20.90
2018-06-21T23:29:42.597Z,21.70
2018-06-21T23:32:15.671Z,21.90
2018-06-21T23:34:48.711Z,22.00
2018-06-21T23:37:21.773Z,21.50
2018-06-21T23:39:54.875Z,21.70
2018-06-21T23:42:27.925Z,21.40
2018-06-21T23:45:01.013Z,21.50
2018-06-21T23:47:34.062Z,22.10
2018-06-21T23:50:07.184Z,22.10
2018-06-21T23:52:40.267Z,22.50
2018-06-21T23:55:13.380Z,22.50
2018-06-21T23:57:46.467Z,22.40
